Airport View

Enter AWOS ICAO identifier for current METAR.

ex. KFNL

KOLG 262140Z AUTO 35006KT 10SM OVC048 M05/M15 A3017 RMK AO1

26 Feb 2020 21:44

Frequency: 119.6

Phone: 715-378-2031

Other Area AWOS: KHYR - KSUW - KDYT - KDLH

TAF AMD KHYR 262004Z 2620/2718 35005KT P6SM SCT045 FM270100 VRB03KT P6SM BKN014 FM270200 VRB02KT 3SM -SHSN BKN014 FM270800 VRB02KT P6SM SCT035